Time;durP1;ratioP1;P1;durP2;ratioP2;P2;SDS_P1;SDS_P2;PMS_P1;PMS_P2;Temp;Humidity;BMP_temperature;BMP_pressure;BME280_temperature;BME280_humidity;BME280_pressure;Samples;Min_cycle;Max_cycle;Signal;HPM_P1;HPM_P2
2022/07/24 00:00:59;;;;;;;9.03;8.13;;;;;;;16.17;83.36;100762.75;5098973;28;20474;-66
2022/07/24 00:03:26;;;;;;;9.23;6.70;;;;;;;16.18;83.33;100767.13;5099796;28;20458;-66
2022/07/24 00:05:54;;;;;;;9.10;7.00;;;;;;;16.19;83.40;100773.38;5098728;28;20569;-66
2022/07/24 00:08:21;;;;;;;7.30;6.50;;;;;;;16.13;83.65;100761.41;5099789;28;20466;-66
2022/07/24 00:10:48;;;;;;;7.60;6.10;;;;;;;16.12;83.71;100758.84;5099271;28;20503;-66
2022/07/24 00:13:21;;;;;;;7.17;6.47;;;;;;;16.08;84.19;100774.53;5099683;28;20470;-66
2022/07/24 00:15:47;;;;;;;9.10;6.73;;;;;;;16.06;84.30;100771.16;5098286;28;20470;-66
2022/07/24 00:18:14;;;;;;;6.93;6.33;;;;;;;15.99;84.49;100764.72;5099402;28;20482;-66
2022/07/24 00:20:41;;;;;;;7.00;6.30;;;;;;;15.99;84.21;100762.03;5099319;28;20470;-66
2022/07/24 00:23:09;;;;;;;6.40;5.80;;;;;;;16.08;84.19;100766.44;5099130;28;20473;-66
2022/07/24 00:25:35;;;;;;;8.93;7.27;;;;;;;15.94;84.10;100758.97;5099082;28;20474;-66
2022/07/24 00:28:02;;;;;;;7.07;6.33;;;;;;;15.84;84.33;100758.25;5100020;28;20462;-66
2022/07/24 00:30:29;;;;;;;7.70;7.00;;;;;;;15.82;84.45;100761.13;5099942;28;20540;-66
2022/07/24 00:32:55;;;;;;;7.50;6.37;;;;;;;15.83;85.42;100757.41;5103557;28;20467;-66
2022/07/24 00:35:22;;;;;;;6.23;5.63;;;;;;;15.82;85.26;100755.72;5102277;27;20466;-66
2022/07/24 00:37:49;;;;;;;7.30;6.60;;;;;;;15.81;85.07;100764.81;5103173;28;20474;-66
2022/07/24 00:40:17;;;;;;;6.90;6.20;;;;;;;15.79;84.61;100764.97;5102702;28;20562;-66
2022/07/24 00:42:44;;;;;;;7.17;6.47;;;;;;;15.74;84.49;100755.66;5103332;28;21125;-66
2022/07/24 00:45:11;;;;;;;7.07;6.37;;;;;;;15.72;84.92;100760.38;5102368;28;21007;-66
2022/07/24 00:47:38;;;;;;;7.00;6.30;;;;;;;15.74;85.09;100764.56;5102403;28;20475;-66
2022/07/24 00:50:06;;;;;;;6.50;5.90;;;;;;;15.71;84.90;100762.22;5103133;28;20431;-66
2022/07/24 00:52:32;;;;;;;6.67;6.07;;;;;;;15.72;85.11;100760.38;5102766;28;20477;-66
2022/07/24 00:54:59;;;;;;;5.57;5.07;;;;;;;15.67;84.76;100763.53;5102689;28;20454;-66
2022/07/24 00:57:27;;;;;;;6.63;5.00;;;;;;;15.66;84.91;100761.00;5102107;27;20470;-66
2022/07/24 00:59:54;;;;;;;6.10;5.03;;;;;;;15.63;84.73;100759.47;5102823;28;20540;-66
2022/07/24 01:02:21;;;;;;;5.30;4.50;;;;;;;15.61;84.61;100758.81;5102214;28;20471;-66
2022/07/24 01:04:48;;;;;;;6.03;4.40;;;;;;;15.59;83.98;100758.97;5102502;28;20423;-66
2022/07/24 01:07:15;;;;;;;5.80;4.70;;;;;;;15.61;83.55;100753.41;5102624;28;21006;-66
2022/07/24 01:09:42;;;;;;;5.47;4.97;;;;;;;15.56;83.99;100753.06;5102780;28;20438;-66
2022/07/24 01:12:09;;;;;;;5.50;5.00;;;;;;;15.54;84.62;100753.22;5101772;28;20474;-66
2022/07/24 01:14:38;;;;;;;4.77;4.37;;;;;;;15.47;84.47;100752.16;5102759;28;20484;-66
2022/07/24 01:17:05;;;;;;;4.90;4.50;;;;;;;15.46;84.71;100755.84;5101026;28;20467;-66
2022/07/24 01:19:32;;;;;;;5.13;4.63;;;;;;;15.42;85.07;100755.34;5102630;28;20520;-66
2022/07/24 01:22:00;;;;;;;5.13;4.30;;;;;;;15.37;85.11;100749.56;5101873;28;20474;-66
2022/07/24 01:24:26;;;;;;;4.43;4.03;;;;;;;15.36;84.99;100745.22;5102433;28;20447;-66
2022/07/24 01:26:53;;;;;;;9.70;4.30;;;;;;;15.36;84.95;100742.50;5101717;27;21159;-67
2022/07/24 01:29:20;;;;;;;4.97;4.47;;;;;;;15.36;85.14;100745.22;5103301;28;20423;-66
2022/07/24 01:31:46;;;;;;;6.20;4.60;;;;;;;15.36;85.42;100738.97;5101445;27;20486;-66
2022/07/24 01:34:13;;;;;;;4.87;4.37;;;;;;;15.31;85.48;100736.75;5102521;28;20955;-66
2022/07/24 01:36:40;;;;;;;5.60;5.10;;;;;;;15.36;85.45;100742.50;5101105;28;20546;-67
2022/07/24 01:39:08;;;;;;;5.60;5.07;;;;;;;15.27;85.76;100748.84;5102262;28;20472;-66
2022/07/24 01:41:35;;;;;;;6.20;5.07;;;;;;;15.26;86.01;100747.16;5100981;28;20478;-66
2022/07/24 01:44:02;;;;;;;5.40;4.90;;;;;;;15.27;86.11;100745.31;5101998;28;20454;-66
2022/07/24 01:46:28;;;;;;;5.90;5.20;;;;;;;15.25;86.08;100743.59;5100464;28;20502;-66
2022/07/24 01:48:55;;;;;;;6.70;6.10;;;;;;;15.25;86.24;100749.00;5102159;28;20438;-66
2022/07/24 01:51:22;;;;;;;7.27;6.13;;;;;;;15.28;86.27;100737.06;5101086;28;21301;-66
2022/07/24 01:53:49;;;;;;;6.73;5.20;;;;;;;15.33;86.11;100741.97;5101428;28;20455;-66
2022/07/24 01:56:17;;;;;;;7.03;4.93;;;;;;;15.33;86.00;100741.97;5101268;28;20509;-66
2022/07/24 01:58:44;;;;;;;5.53;5.03;;;;;;;15.32;86.32;100742.97;5101913;28;20469;-66
2022/07/24 02:01:10;;;;;;;5.60;5.10;;;;;;;15.26;86.44;100744.47;5100834;28;20470;-67
2022/07/24 02:03:38;;;;;;;6.10;5.50;;;;;;;15.27;86.25;100739.94;5101857;28;20450;-66
2022/07/24 02:06:05;;;;;;;5.73;5.10;;;;;;;15.31;86.13;100735.91;5101111;28;20470;-66
2022/07/24 02:08:32;;;;;;;5.30;4.83;;;;;;;15.29;86.00;100735.22;5101876;28;20431;-66
2022/07/24 02:10:58;;;;;;;5.57;5.03;;;;;;;15.26;86.05;100744.47;5100564;28;20510;-66
2022/07/24 02:13:26;;;;;;;5.63;5.13;;;;;;;15.19;86.12;100740.69;5101642;28;21011;-66
2022/07/24 02:15:53;;;;;;;6.47;5.10;;;;;;;15.18;86.01;100737.16;5100390;28;20475;-66
2022/07/24 02:18:20;;;;;;;5.43;5.03;;;;;;;15.17;85.94;100740.88;5101376;28;20443;-66
2022/07/24 02:20:46;;;;;;;5.70;5.20;;;;;;;15.16;86.17;100747.25;5100620;28;20503;-66
2022/07/24 02:23:17;;;;;;;6.67;5.03;;;;;;;15.13;85.96;100746.75;5101433;28;20482;-66
2022/07/24 02:25:44;;;;;;;5.93;5.43;;;;;;;15.09;86.18;100748.91;5100771;28;20480;-66
2022/07/24 02:28:11;;;;;;;5.63;5.13;;;;;;;15.07;86.63;100742.84;5101224;28;20431;-66
2022/07/24 02:30:39;;;;;;;5.57;5.07;;;;;;;15.05;86.56;100737.59;5100584;28;20553;-66
2022/07/24 02:33:06;;;;;;;5.50;5.00;;;;;;;15.08;86.55;100736.44;5101424;28;20443;-65
2022/07/24 02:35:33;;;;;;;6.80;5.83;;;;;;;15.09;86.23;100734.59;5100575;28;20493;-66
2022/07/24 02:37:59;;;;;;;7.47;5.90;;;;;;;15.03;86.85;100730.66;5101036;28;20478;-66
2022/07/24 02:40:26;;;;;;;6.60;5.43;;;;;;;15.24;86.38;100735.69;5100175;28;20535;-66
2022/07/24 02:42:53;;;;;;;7.63;4.90;;;;;;;15.18;86.51;100733.66;5101197;28;20450;-66
2022/07/24 02:45:20;;;;;;;5.33;4.90;;;;;;;15.07;86.32;100730.22;5100488;28;20447;-65
2022/07/24 02:47:49;;;;;;;5.70;5.10;;;;;;;15.00;86.38;100729.16;5100019;28;20451;-66
2022/07/24 02:50:17;;;;;;;7.20;5.60;;;;;;;14.98;87.00;100733.84;5099902;28;20439;-65
2022/07/24 02:52:43;;;;;;;5.60;5.10;;;;;;;14.99;87.04;100730.16;5100233;28;20506;-66
2022/07/24 02:55:10;;;;;;;5.63;5.00;;;;;;;14.95;86.77;100726.09;5100140;27;20501;-66
2022/07/24 02:57:37;;;;;;;5.50;5.00;;;;;;;14.97;86.89;100731.31;5100117;28;20459;-66
2022/07/24 03:00:06;;;;;;;6.13;5.57;;;;;;;15.01;86.50;100733.53;5100793;28;20471;-66
2022/07/24 03:02:32;;;;;;;9.33;5.10;;;;;;;14.93;86.65;100733.47;5100014;28;20457;-66
2022/07/24 03:05:01;;;;;;;6.30;5.50;;;;;;;14.98;85.93;100733.00;5100671;28;20455;-66
2022/07/24 03:07:28;;;;;;;6.20;5.60;;;;;;;14.91;86.21;100738.16;5099204;27;20545;-65
2022/07/24 03:09:54;;;;;;;7.67;5.47;;;;;;;15.01;85.80;100740.75;5100624;28;20424;-65
2022/07/24 03:12:21;;;;;;;7.50;6.10;;;;;;;15.01;85.70;100741.59;5099965;28;20508;-65
2022/07/24 03:14:48;;;;;;;6.00;5.50;;;;;;;14.93;85.58;100738.88;5100387;28;20443;-66
2022/07/24 03:17:14;;;;;;;5.87;5.37;;;;;;;14.88;85.94;100735.81;5098215;27;20487;-66
2022/07/24 03:19:41;;;;;;;6.40;5.80;;;;;;;14.86;85.77;100735.13;5100405;28;20499;-66
2022/07/24 03:22:09;;;;;;;6.40;5.80;;;;;;;14.83;85.71;100732.72;5099800;28;20532;-66
2022/07/24 03:24:36;;;;;;;6.93;5.63;;;;;;;14.77;86.27;100728.81;5099776;28;20462;-66
2022/07/24 03:27:03;;;;;;;7.37;5.50;;;;;;;14.86;86.03;100725.19;5099639;28;20471;-66
2022/07/24 03:29:29;;;;;;;6.37;5.60;;;;;;;15.01;85.63;100728.13;5100756;28;20447;-66
2022/07/24 03:31:57;;;;;;;6.87;5.80;;;;;;;15.04;84.49;100721.59;5099558;28;20501;-65
2022/07/24 03:34:23;;;;;;;6.57;5.70;;;;;;;15.05;84.30;100729.53;5081082;28;20525;-65
2022/07/24 03:36:50;;;;;;;6.10;5.50;;;;;;;14.97;84.25;100723.25;5099241;28;20511;-66
2022/07/24 03:39:18;;;;;;;6.23;5.63;;;;;;;14.94;84.78;100724.38;5100186;28;20506;-66
2022/07/24 03:41:45;;;;;;;6.00;5.47;;;;;;;14.85;85.10;100728.88;5099196;28;20499;-65
2022/07/24 03:44:11;;;;;;;6.07;5.57;;;;;;;15.01;84.93;100713.84;5099647;28;21082;-65
2022/07/24 03:46:38;;;;;;;6.60;5.47;;;;;;;15.48;82.55;100718.81;5098196;27;20486;-65
2022/07/24 03:49:05;;;;;;;5.27;4.87;;;;;;;15.88;81.31;100713.78;5100379;28;20463;-65
2022/07/24 03:51:34;;;;;;;7.03;5.87;;;;;;;16.23;78.98;100715.41;5099474;28;20462;-65
2022/07/24 03:54:01;;;;;;;7.97;5.63;;;;;;;16.54;77.54;100717.44;5100014;28;21227;-65
2022/07/24 03:56:30;;;;;;;5.90;5.40;;;;;;;16.87;75.81;100709.34;5098570;28;20506;-65
2022/07/24 03:58:57;;;;;;;7.00;5.13;;;;;;;17.35;72.96;100715.69;5099814;28;20447;-65
2022/07/24 04:01:24;;;;;;;4.87;4.47;;;;;;;17.74;70.93;100712.16;5098882;28;20536;-66
2022/07/24 04:03:50;;;;;;;5.23;4.73;;;;;;;18.19;68.90;100709.72;5099785;28;20489;-66
2022/07/24 04:06:17;;;;;;;4.83;4.03;;;;;;;18.62;67.16;100704.66;5102963;28;20501;-65
2022/07/24 04:08:44;;;;;;;4.57;4.07;;;;;;;19.33;64.71;100710.59;5103995;28;20488;-66
2022/07/24 04:11:11;;;;;;;5.90;4.30;;;;;;;19.77;62.69;100717.03;5102994;28;21059;-66
2022/07/24 04:13:39;;;;;;;5.57;4.50;;;;;;;20.50;60.52;100726.03;5103537;28;20442;-65
2022/07/24 04:16:06;;;;;;;3.90;3.40;;;;;;;21.03;58.60;100728.38;5102895;28;20510;-65
2022/07/24 04:18:33;;;;;;;4.40;4.00;;;;;;;21.39;56.24;100730.06;5103428;28;20506;-66
2022/07/24 04:20:59;;;;;;;4.20;3.70;;;;;;;21.39;56.20;100726.53;5103002;28;20510;-66
2022/07/24 04:23:26;;;;;;;4.50;3.43;;;;;;;22.08;54.35;100736.50;5103503;28;20447;-66
2022/07/24 04:25:53;;;;;;;3.60;3.30;;;;;;;22.74;52.33;100729.50;5102769;28;20503;-66
2022/07/24 04:28:19;;;;;;;4.60;3.60;;;;;;;22.87;51.34;100725.97;5103646;28;20459;-66
2022/07/24 04:30:47;;;;;;;3.83;3.30;;;;;;;22.40;52.47;100723.19;5102354;27;20840;-66
2022/07/24 04:33:14;;;;;;;4.10;3.00;;;;;;;22.35;52.88;100715.63;5103578;28;20475;-66
2022/07/24 04:35:41;;;;;;;5.37;3.93;;;;;;;21.79;53.71;100716.69;5102436;28;20482;-66
2022/07/24 04:38:08;;;;;;;3.23;2.87;;;;;;;21.95;54.63;100714.66;5103208;28;20431;-67
2022/07/24 04:40:34;;;;;;;3.80;3.43;;;;;;;22.05;54.40;100717.84;5102223;28;20543;-66
2022/07/24 04:43:01;;;;;;;3.67;3.27;;;;;;;22.14;53.66;100722.06;5102514;28;20885;-67
2022/07/24 04:45:28;;;;;;;3.60;3.23;;;;;;;21.82;55.47;100729.06;5102047;28;20494;-66
2022/07/24 04:47:56;;;;;;;4.23;3.70;;;;;;;22.06;54.80;100718.69;5101721;28;20442;-66
2022/07/24 04:50:22;;;;;;;5.63;3.93;;;;;;;22.71;52.35;100724.50;5102568;28;20478;-66
2022/07/24 04:52:49;;;;;;;10.30;3.83;;;;;;;22.16;53.27;100708.25;5102746;28;20431;-66
2022/07/24 04:55:16;;;;;;;4.57;3.50;;;;;;;21.97;53.51;100713.41;5102184;28;20553;-66
2022/07/24 04:57:44;;;;;;;4.90;3.30;;;;;;;22.02;53.70;100711.97;5103151;28;20450;-66
2022/07/24 05:00:13;;;;;;;3.30;3.00;;;;;;;22.79;51.71;100717.97;5102523;28;20497;-67
2022/07/24 05:02:39;;;;;;;4.07;3.70;;;;;;;22.67;51.51;100720.50;5102114;28;20477;-67
2022/07/24 05:05:08;;;;;;;3.57;3.27;;;;;;;22.93;51.53;100712.31;5102156;28;20486;-66
2022/07/24 05:07:35;;;;;;;5.87;3.60;;;;;;;22.88;50.98;100714.84;5102454;28;20509;-66
2022/07/24 05:10:01;;;;;;;5.47;4.00;;;;;;;22.94;50.31;100708.53;5102882;28;20447;-66
2022/07/24 05:12:28;;;;;;;5.43;3.07;;;;;;;23.02;51.02;100703.91;5102086;28;20514;-66
2022/07/24 05:14:55;;;;;;;5.07;3.70;;;;;;;22.43;51.16;100694.69;5102210;28;20453;-66
2022/07/24 05:17:21;;;;;;;3.93;3.40;;;;;;;22.93;50.44;100700.56;5100345;28;20477;-65
2022/07/24 05:19:48;;;;;;;5.50;3.20;;;;;;;23.27;49.93;100706.84;5102626;28;20498;-66
2022/07/24 05:22:16;;;;;;;4.80;3.80;;;;;;;23.94;47.72;100702.03;5102083;28;20483;-65
2022/07/24 05:24:43;;;;;;;3.93;3.53;;;;;;;23.91;47.74;100702.44;5102076;28;20958;-66
2022/07/24 05:27:10;;;;;;;5.13;3.40;;;;;;;23.99;47.45;100704.06;5101903;27;20479;-66
2022/07/24 05:29:36;;;;;;;5.50;3.40;;;;;;;24.99;45.80;100706.13;5102680;28;20458;-66
2022/07/24 05:32:03;;;;;;;3.53;3.00;;;;;;;25.03;45.03;100698.28;5101620;28;20481;-66
2022/07/24 05:34:30;;;;;;;4.03;3.20;;;;;;;25.20;45.27;100699.38;5101909;28;20719;-66
2022/07/24 05:36:57;;;;;;;5.93;3.40;;;;;;;25.22;45.13;100690.94;5101139;28;21018;-66
2022/07/24 05:39:25;;;;;;;3.50;2.87;;;;;;;24.94;44.94;100693.09;5102082;28;20455;-66
2022/07/24 05:41:52;;;;;;;4.90;3.50;;;;;;;25.11;45.00;100695.28;5101313;28;20474;-66
2022/07/24 05:44:18;;;;;;;3.47;3.17;;;;;;;26.76;42.13;100687.84;5101791;28;20546;-66
2022/07/24 05:46:45;;;;;;;3.90;3.03;;;;;;;26.69;41.84;100692.63;5100196;28;20530;-66
2022/07/24 05:49:11;;;;;;;4.93;2.73;;;;;;;25.46;43.33;100694.72;5102326;28;20526;-66
2022/07/24 05:51:38;;;;;;;3.03;2.73;;;;;;;24.77;46.08;100695.59;5101202;28;20502;-66
2022/07/24 05:54:05;;;;;;;3.17;2.70;;;;;;;26.17;42.77;100689.63;5101955;28;20451;-66
2022/07/24 05:56:33;;;;;;;3.87;2.57;;;;;;;25.95;42.59;100683.81;5100391;28;20478;-66
2022/07/24 05:59:00;;;;;;;4.47;3.07;;;;;;;26.63;40.92;100690.81;5101924;28;20973;-66
2022/07/24 06:01:26;;;;;;;3.40;2.70;;;;;;;26.45;41.23;100686.22;5100660;28;20890;-66
2022/07/24 06:03:53;;;;;;;4.40;2.43;;;;;;;26.68;41.19;100683.56;5102272;28;20439;-66
2022/07/24 06:06:19;;;;;;;3.97;2.47;;;;;;;27.66;39.52;100684.94;5100903;27;20510;-65
2022/07/24 06:08:46;;;;;;;3.70;2.40;;;;;;;26.84;40.58;100687.50;5101825;28;20443;-66
2022/07/24 06:11:13;;;;;;;4.50;2.83;;;;;;;27.01;40.41;100682.13;5101141;28;20547;-66
2022/07/24 06:13:41;;;;;;;3.20;2.20;;;;;;;27.23;39.68;100684.25;5101669;28;20448;-65
2022/07/24 06:16:08;;;;;;;2.50;2.30;;;;;;;27.60;39.10;100689.47;5100132;27;21027;-66
2022/07/24 06:18:34;;;;;;;3.97;2.60;;;;;;;27.10;40.84;100681.75;5101415;28;20466;-66
2022/07/24 06:21:01;;;;;;;3.07;2.77;;;;;;;27.08;40.25;100678.41;5101261;28;20511;-66
2022/07/24 06:23:28;;;;;;;2.87;2.30;;;;;;;27.36;40.31;100680.44;5101610;28;20482;-66
2022/07/24 06:25:54;;;;;;;3.50;2.27;;;;;;;27.55;40.02;100684.72;5100868;28;20546;-66
2022/07/24 06:28:21;;;;;;;3.80;2.47;;;;;;;27.64;40.26;100684.31;5100199;28;20427;-66
2022/07/24 06:30:49;;;;;;;6.50;2.63;;;;;;;28.63;38.17;100672.19;5100504;28;20509;-65
2022/07/24 06:33:16;;;;;;;2.40;2.10;;;;;;;28.23;38.69;100675.84;5100741;28;20492;-66
2022/07/24 06:35:42;;;;;;;3.67;2.90;;;;;;;28.33;38.91;100676.03;5100020;28;20470;-65
2022/07/24 06:38:10;;;;;;;8.77;2.67;;;;;;;28.33;38.69;100678.78;5100722;28;20454;-66
2022/07/24 06:40:37;;;;;;;5.20;2.07;;;;;;;29.13;37.40;100673.19;5100555;28;20471;-66
2022/07/24 06:43:04;;;;;;;2.73;2.53;;;;;;;29.55;36.18;100670.75;5100956;28;20431;-66
2022/07/24 06:45:32;;;;;;;3.07;2.70;;;;;;;28.68;38.25;100683.25;5100526;28;20572;-66
2022/07/24 06:48:00;;;;;;;7.30;2.90;;;;;;;28.84;37.83;100682.41;5099447;28;21242;-66
2022/07/24 06:50:27;;;;;;;3.70;2.30;;;;;;;29.05;37.57;100683.53;5100422;28;20481;-65
2022/07/24 06:52:54;;;;;;;2.90;2.60;;;;;;;29.67;36.64;100682.47;5101290;28;20492;-66
2022/07/24 06:55:21;;;;;;;2.83;2.30;;;;;;;30.30;35.89;100684.81;5099640;28;20520;-65
2022/07/24 06:57:47;;;;;;;2.60;2.20;;;;;;;29.93;36.70;100676.41;5100811;28;20455;-65
2022/07/24 07:00:15;;;;;;;2.83;2.27;;;;;;;29.64;36.70;100680.22;5100745;28;20466;-65
2022/07/24 07:02:41;;;;;;;2.60;2.40;;;;;;;29.74;36.57;100685.03;5101073;28;20520;-66
2022/07/24 07:05:10;;;;;;;4.63;2.23;;;;;;;30.42;35.63;100679.16;5100888;28;20454;-66
2022/07/24 07:07:37;;;;;;;3.87;2.70;;;;;;;31.00;32.72;100681.25;5100658;28;20533;-66
2022/07/24 07:10:05;;;;;;;2.47;2.27;;;;;;;31.22;32.31;100675.59;5101373;28;20427;-66
2022/07/24 07:12:32;;;;;;;2.83;2.10;;;;;;;30.95;31.95;100687.56;5100517;28;20448;-65
2022/07/24 07:14:59;;;;;;;2.80;2.47;;;;;;;30.86;32.30;100678.91;5100983;28;20579;-66
2022/07/24 07:17:26;;;;;;;2.70;2.50;;;;;;;32.38;30.90;100681.78;5099819;27;20509;-65
2022/07/24 07:19:52;;;;;;;3.50;2.27;;;;;;;32.42;31.09;100682.88;5100846;28;20463;-65
2022/07/24 07:22:20;;;;;;;2.90;2.17;;;;;;;31.87;31.56;100678.91;5100682;28;20482;-66
2022/07/24 07:24:47;;;;;;;3.67;3.27;;;;;;;32.60;30.26;100686.22;5100700;28;20451;-66
2022/07/24 07:27:14;;;;;;;2.70;2.33;;;;;;;32.83;30.50;100677.34;5100196;28;20490;-66
2022/07/24 07:29:40;;;;;;;2.30;2.10;;;;;;;33.73;28.94;100689.59;5100494;28;20438;-66
2022/07/24 07:32:07;;;;;;;2.83;2.63;;;;;;;32.71;30.57;100675.97;5099503;28;20542;-66
2022/07/24 07:34:34;;;;;;;3.20;2.87;;;;;;;34.06;28.43;100678.84;5100290;28;20482;-66
2022/07/24 07:37:00;;;;;;;3.90;2.60;;;;;;;33.62;27.85;100674.06;5099489;28;20518;-66
2022/07/24 07:39:28;;;;;;;2.70;2.50;;;;;;;33.40;27.97;100675.28;5099656;28;20456;-67
2022/07/24 07:41:55;;;;;;;2.80;2.50;;;;;;;33.73;28.20;100672.94;5099371;28;20482;-66
2022/07/24 07:44:21;;;;;;;5.30;2.93;;;;;;;33.44;26.93;100672.78;5100008;28;20443;-66
2022/07/24 07:46:48;;;;;;;2.93;2.47;;;;;;;34.46;25.63;100673.28;5098296;28;20507;-66
2022/07/24 07:49:15;;;;;;;3.80;2.97;;;;;;;35.03;24.52;100673.59;5100010;28;20423;-66
2022/07/24 07:51:42;;;;;;;3.50;2.70;;;;;;;35.73;24.73;100667.53;5099707;27;20482;-66
2022/07/24 07:54:08;;;;;;;3.57;3.10;;;;;;;34.89;24.54;100657.66;5099839;28;20451;-67
2022/07/24 07:56:36;;;;;;;4.03;2.90;;;;;;;33.77;25.81;100659.34;5098901;28;21043;-67
2022/07/24 07:59:03;;;;;;;4.90;3.60;;;;;;;33.12;27.69;100657.34;5100331;28;20495;-67
2022/07/24 08:01:30;;;;;;;3.63;3.20;;;;;;;34.84;25.13;100657.72;5099211;27;20502;-67
2022/07/24 08:03:56;;;;;;;3.53;3.23;;;;;;;34.08;25.64;100661.91;5099885;28;21048;-67
2022/07/24 08:06:23;;;;;;;3.77;3.30;;;;;;;33.80;26.10;100655.16;5099109;28;20986;-67
2022/07/24 08:08:50;;;;;;;4.17;3.33;;;;;;;33.29;26.00;100665.34;5099425;28;20455;-67
2022/07/24 08:11:16;;;;;;;3.80;3.40;;;;;;;33.98;25.30;100660.03;5099341;28;20471;-67
2022/07/24 08:13:45;;;;;;;4.10;3.70;;;;;;;32.71;27.61;100651.91;5099766;28;20511;-67
2022/07/24 08:16:11;;;;;;;3.80;3.50;;;;;;;33.47;26.93;100658.38;5098660;28;20515;-67
2022/07/24 08:18:39;;;;;;;4.87;3.57;;;;;;;32.92;26.71;100658.22;5099191;28;20416;-67
2022/07/24 08:21:06;;;;;;;5.10;3.60;;;;;;;33.50;26.04;100659.72;5099527;28;20983;-67
2022/07/24 08:23:33;;;;;;;4.13;3.80;;;;;;;33.26;27.33;100663.13;5099854;28;21226;-66
2022/07/24 08:25:59;;;;;;;3.77;3.40;;;;;;;33.06;27.64;100657.66;5099225;27;20531;-67
2022/07/24 08:28:26;;;;;;;3.60;3.30;;;;;;;34.31;25.52;100652.06;5099161;28;20450;-67
2022/07/24 08:30:54;;;;;;;3.80;3.50;;;;;;;33.89;25.69;100659.00;5098511;27;20505;-67
2022/07/24 08:33:21;;;;;;;4.40;3.90;;;;;;;33.38;25.38;100655.34;5099037;28;20982;-67
2022/07/24 08:35:48;;;;;;;4.43;3.97;;;;;;;32.88;25.64;100646.06;5098138;28;20471;-66
2022/07/24 08:38:16;;;;;;;4.30;3.90;;;;;;;32.45;27.10;100649.13;5099631;28;20473;-66
2022/07/24 08:40:43;;;;;;;4.40;3.60;;;;;;;33.22;26.11;100653.75;5098938;28;20490;-67
2022/07/24 08:43:10;;;;;;;5.17;4.20;;;;;;;33.47;25.63;100649.19;5099585;28;20431;-66
2022/07/24 08:45:38;;;;;;;4.90;3.97;;;;;;;33.54;26.01;100647.78;5098965;28;20530;-66
2022/07/24 08:48:08;;;;;;;3.90;3.53;;;;;;;33.52;25.63;100651.94;5098213;28;20443;-66
2022/07/24 08:50:37;;;;;;;4.10;3.70;;;;;;;33.31;25.49;100648.44;5098715;27;20470;-67
2022/07/24 08:53:04;;;;;;;3.70;3.40;;;;;;;32.27;25.52;100653.28;5095170;28;20459;-67
2022/07/24 08:55:31;;;;;;;4.20;3.80;;;;;;;32.00;27.54;100647.16;5093964;28;20482;-67
2022/07/24 08:57:59;;;;;;;4.40;4.00;;;;;;;31.60;28.46;100640.41;5102143;28;20446;-67
2022/07/24 09:00:26;;;;;;;5.17;4.50;;;;;;;33.02;25.99;100647.13;5101542;28;20558;-67
2022/07/24 09:02:53;;;;;;;6.30;4.07;;;;;;;32.80;27.05;100652.16;5100962;28;20458;-68
2022/07/24 09:05:21;;;;;;;6.40;4.53;;;;;;;32.36;27.08;100639.72;5101122;28;20470;-67
2022/07/24 09:07:47;;;;;;;4.40;4.00;;;;;;;33.63;25.14;100647.16;5102359;28;20478;-67
2022/07/24 09:10:16;;;;;;;4.47;3.87;;;;;;;33.93;25.37;100648.97;5101397;28;20432;-66
2022/07/24 09:12:45;;;;;;;4.60;4.20;;;;;;;34.79;24.16;100648.56;5101999;28;20506;-66
2022/07/24 09:15:13;;;;;;;4.13;3.73;;;;;;;34.00;25.24;100655.03;5101385;28;20443;-67
2022/07/24 09:17:49;;;;;;;7.03;4.20;;;;;;;33.55;27.19;100660.53;5100418;28;20485;-67
2022/07/24 09:20:15;;;;;;;4.20;3.90;;;;;;;33.37;27.19;100650.91;5101699;28;20495;-66
2022/07/24 09:22:44;;;;;;;4.60;4.20;;;;;;;33.80;25.93;100650.47;5101345;28;20547;-67
2022/07/24 09:25:14;;;;;;;6.47;5.43;;;;;;;33.78;25.64;100652.66;5100846;28;20459;-65
2022/07/24 09:27:42;;;;;;;9.50;6.53;;;;;;;33.57;25.05;100647.19;5101713;28;20523;-66
2022/07/24 09:30:10;;;;;;;6.53;5.93;;;;;;;33.08;26.49;100647.94;5101452;28;20470;-65
2022/07/24 09:32:37;;;;;;;5.73;5.13;;;;;;;32.80;27.31;100635.56;5100329;28;20522;-66
2022/07/24 09:35:05;;;;;;;5.43;4.93;;;;;;;32.65;27.89;100641.94;5101295;28;20451;-66
2022/07/24 09:37:32;;;;;;;6.20;5.60;;;;;;;32.58;27.28;100635.81;5101060;28;20483;-66
2022/07/24 09:40:10;;;;;;;6.47;5.87;;;;;;;32.65;27.27;100634.47;5101434;28;20473;-66
2022/07/24 09:42:39;;;;;;;5.50;4.83;;;;;;;33.43;27.45;100635.06;5101241;28;20579;-66
2022/07/24 09:45:10;;;;;;;7.80;5.23;;;;;;;33.84;27.53;100636.84;5100869;28;20475;-66
2022/07/24 09:47:38;;;;;;;7.50;5.10;;;;;;;33.09;27.15;100632.13;5098910;28;20520;-66
2022/07/24 09:50:16;;;;;;;5.70;5.20;;;;;;;34.24;25.24;100632.13;5101370;28;20423;-64
2022/07/24 09:52:44;;;;;;;6.27;4.50;;;;;;;33.45;26.68;100637.56;5081015;28;20440;-65
2022/07/24 09:55:27;;;;;;;5.93;5.40;;;;;;;33.35;26.94;100628.19;5079417;28;20466;-65
2022/07/24 09:57:54;;;;;;;5.33;4.80;;;;;;;32.91;28.25;100628.03;5082475;28;20455;-65
2022/07/24 10:00:21;;;;;;;6.33;5.73;;;;;;;33.61;26.76;100624.44;5079569;28;20526;-66
2022/07/24 10:02:50;;;;;;;5.90;5.07;;;;;;;34.04;27.51;100621.97;5080656;28;20495;-66
2022/07/24 10:05:18;;;;;;;5.57;5.07;;;;;;;33.67;28.95;100632.50;5080312;28;20455;-65
2022/07/24 10:07:48;;;;;;;5.17;4.60;;;;;;;33.89;26.80;100631.25;5081344;28;20462;-66
2022/07/24 10:10:15;;;;;;;5.67;5.17;;;;;;;32.80;29.13;100622.53;5080665;28;20432;-65
2022/07/24 10:12:45;;;;;;;8.90;5.10;;;;;;;33.41;28.08;100626.22;5080526;28;20428;-65
2022/07/24 10:15:13;;;;;;;8.53;5.80;;;;;;;33.24;27.48;100621.03;5079568;28;20459;-65
2022/07/24 10:18:01;;;;;;;5.33;4.83;;;;;;;33.95;27.68;100619.81;5080366;28;20486;-65
2022/07/24 10:20:35;;;;;;;5.80;4.63;;;;;;;34.52;27.20;100622.97;5080519;28;20489;-65
2022/07/24 10:23:05;;;;;;;5.23;4.83;;;;;;;35.14;28.21;100615.94;5080591;28;20467;-66
2022/07/24 10:25:43;;;;;;;5.17;4.77;;;;;;;35.11;26.44;100613.78;5080589;28;20516;-66
2022/07/24 10:28:15;;;;;;;5.30;4.80;;;;;;;35.50;25.48;100612.75;5081367;28;20508;-66
2022/07/24 10:30:43;;;;;;;4.60;4.17;;;;;;;35.31;26.83;100609.94;5079049;28;20460;-66
2022/07/24 10:33:09;;;;;;;6.60;5.20;;;;;;;34.42;27.43;100611.16;5079908;28;20490;-65
2022/07/24 10:35:37;;;;;;;7.63;5.67;;;;;;;33.83;28.93;100610.22;5079693;28;20482;-65
2022/07/24 10:38:11;;;;;;;5.10;4.60;;;;;;;33.07;29.14;100609.44;5039518;28;20994;-65
2022/07/24 10:40:43;;;;;;;6.07;5.07;;;;;;;32.99;29.51;100608.91;5039282;28;20489;-65
2022/07/24 10:43:17;;;;;;;5.87;5.27;;;;;;;32.50;30.14;100603.16;5039872;28;21005;-66
2022/07/24 10:45:45;;;;;;;5.67;5.13;;;;;;;32.48;29.97;100600.66;5038809;28;20478;-64
2022/07/24 10:48:30;;;;;;;5.57;4.73;;;;;;;34.08;29.38;100589.75;5039220;28;20453;-65
2022/07/24 10:51:02;;;;;;;5.63;4.97;;;;;;;33.11;30.03;100596.69;5045962;28;20487;-66
2022/07/24 10:53:32;;;;;;;5.17;4.77;;;;;;;32.71;29.27;100587.38;5059065;28;20459;-65
2022/07/24 10:56:17;;;;;;;6.80;4.90;;;;;;;32.63;29.88;100591.56;5059455;28;20503;-65
2022/07/24 10:58:57;;;;;;;5.07;4.57;;;;;;;32.91;28.78;100600.34;5059979;28;20922;-65
2022/07/24 11:01:32;;;;;;;5.57;4.83;;;;;;;32.86;28.79;100595.66;5057477;28;20524;-65
2022/07/24 11:04:00;;;;;;;6.27;4.90;;;;;;;32.53;31.30;100591.53;5059769;28;20452;-66
2022/07/24 11:06:40;;;;;;;5.23;4.83;;;;;;;32.83;29.26;100582.38;5058932;28;20533;-65
2022/07/24 11:09:07;;;;;;;5.23;4.50;;;;;;;33.88;27.56;100572.16;5058765;28;20456;-66
2022/07/24 11:11:34;;;;;;;5.80;5.23;;;;;;;33.27;28.58;100578.09;5058935;28;20504;-66
2022/07/24 11:14:02;;;;;;;6.60;4.90;;;;;;;33.47;28.17;100574.34;5058758;28;20531;-65
2022/07/24 11:16:33;;;;;;;6.10;5.40;;;;;;;33.60;29.54;100562.63;5057316;28;20469;-65
2022/07/24 11:19:25;;;;;;;7.00;5.47;;;;;;;33.66;29.36;100569.81;5059376;28;20500;-65
2022/07/24 11:22:03;;;;;;;5.17;4.70;;;;;;;33.61;28.53;100567.09;5058270;28;20513;-64
2022/07/24 11:24:30;;;;;;;6.40;5.57;;;;;;;32.84;29.44;100562.69;5059112;28;20472;-65
2022/07/24 11:26:58;;;;;;;5.57;5.00;;;;;;;33.36;28.69;100568.03;5058499;28;21029;-65